EIKN/NOC METAR and TAF weather

Enter ICAO airport designator
Station Type Date Time Source
EIKN METAR 2020/03/30 14:30 UTC NOAA

EIKN 301430Z 36016KT 9999 FEW024 BKN036 08/05 Q1040


Station Type Date Time Source
EIKN Decoded METAR 2020/03/30 14:30 UTC NOAA

Connaught, Ireland (EIKN) 53-54-37N 008-49-05W
Mar 30, 2020 - 10:30 AM EDT / 2020.03.30 1430 UTC
Wind: from the N (360 degrees) at 18 MPH (16 KT):0
Visibility: greater than 7 mile(s):0
Sky conditions: mostly cloudy
Temperature: 46 F (8 C)
Dew Point: 41 F (5 C)
Relative Humidity: 81%
Pressure (altimeter): 30.71 in. Hg (1040 hPa)
ob: EIKN 301430Z 36016KT 9999 FEW024 BKN036 08/05 Q1040
cycle: 14

Station Type Date Time Source
EIKN TAF 2020/03/30 12:07 UTC NOAA

TAF EIKN 301257Z 3012/3106 CNL

Example: see airport list